Terminal Aerodrome Forecast
Issued by NWS

Home | Current Version | Previous Version | Text Only | Print | Product List | Glossary On
Versions: 1 2 3 4 5 6 7 8 9 10 11 12 13 14 15
000
FTUS43 KSGF 281100
TAFJLN
TAF
KJLN 281125Z 2812/2912 13006KT P6SM OVC080
     FM281500 13010KT P6SM SCT070 BKN100
     FM281900 13009KT P6SM SCT120
     FM290500 15013KT P6SM SCT250 WS020/20035KT=

USA.gov is the U.S. government's official web portal to all federal, state and local government web resources and services.